Aviation Digital Data Service (ADDS)

Output produced by METARs form (1934 UTC 23 January 2019)
found at http://www.aviationweather.gov/metar/data/
 
METAR text: DXNG 231800Z 33004KT CAVOK 31/M07 Q1013
Conditions at: DXNG (NAIMTOUGOU(CIV/M, TG) observed 1800 UTC 23 January 2019
Temperature: 31.0°C (88°F)
Dewpoint: -7.0°C (19°F) [RH =  8%]
Pressure (altimeter): 29.91 inches Hg (1013.0 mb)
Winds: from the NNW (330 degrees) at 5 MPH (4 knots; 2.1 m/s)
Visibility: 6 or more miles (10+ km)
Ceiling: ceiling and visibility are OK
Clouds: unknown
Weather: no significant weather observed at this time

METAR text: DXNG 231700Z 35003KT 310V040 CAVOK 34/M09 Q1012
Conditions at: DXNG (NAIMTOUGOU(CIV/M, TG) observed 1700 UTC 23 January 2019
Temperature: 34.0°C (93°F)
Dewpoint: -9.0°C (16°F) [RH =  6%]
Pressure (altimeter): 29.88 inches Hg (1012.0 mb)
Winds: from the N (350 degrees) at 3 MPH (3 knots; 1.5 m/s)
Visibility: 6 or more miles (10+ km)
Ceiling: ceiling and visibility are OK
Clouds: unknown
Weather: no significant weather observed at this time

METAR text: DXNG 231600Z VRB03KT CAVOK 35/M08 Q1012
Conditions at: DXNG (NAIMTOUGOU(CIV/M, TG) observed 1600 UTC 23 January 2019
Temperature: 35.0°C (95°F)
Dewpoint: -8.0°C (18°F) [RH =  6%]
Pressure (altimeter): 29.88 inches Hg (1012.0 mb)
Winds: variable direction winds at 3 MPH (3 knots; 1.5 m/s)
Visibility: 6 or more miles (10+ km)
Ceiling: ceiling and visibility are OK
Clouds: unknown
Weather: no significant weather observed at this time

METAR text: DXNG 231500Z VRB03KT CAVOK 34/M08 Q1012
Conditions at: DXNG (NAIMTOUGOU(CIV/M, TG) observed 1500 UTC 23 January 2019
Temperature: 34.0°C (93°F)
Dewpoint: -8.0°C (18°F) [RH =  6%]
Pressure (altimeter): 29.88 inches Hg (1012.0 mb)
Winds: variable direction winds at 3 MPH (3 knots; 1.5 m/s)
Visibility: 6 or more miles (10+ km)
Ceiling: ceiling and visibility are OK
Clouds: unknown
Weather: no significant weather observed at this time

METAR text: DXNG 231400Z 10006KT 060V140 CAVOK 34/M08 Q1013
Conditions at: DXNG (NAIMTOUGOU(CIV/M, TG) observed 1400 UTC 23 January 2019
Temperature: 34.0°C (93°F)
Dewpoint: -8.0°C (18°F) [RH =  6%]
Pressure (altimeter): 29.91 inches Hg (1013.0 mb)
Winds: from the E (100 degrees) at 7 MPH (6 knots; 3.1 m/s)
Visibility: 6 or more miles (10+ km)
Ceiling: ceiling and visibility are OK
Clouds: unknown
Weather: no significant weather observed at this time

METAR text: DXNG 231300Z 07005KT 350V160 CAVOK 33/M09 Q1014
Conditions at: DXNG (NAIMTOUGOU(CIV/M, TG) observed 1300 UTC 23 January 2019
Temperature: 33.0°C (91°F)
Dewpoint: -9.0°C (16°F) [RH =  6%]
Pressure (altimeter): 29.94 inches Hg (1014.0 mb)
Winds: from the ENE (70 degrees) at 6 MPH (5 knots; 2.6 m/s)
Visibility: 6 or more miles (10+ km)
Ceiling: ceiling and visibility are OK
Clouds: unknown
Weather: no significant weather observed at this time

METAR text: DXNG 231200Z 07006KT 010V130 CAVOK 32/M10 Q1015
Conditions at: DXNG (NAIMTOUGOU(CIV/M, TG) observed 1200 UTC 23 January 2019
Temperature: 32.0°C (90°F)
Dewpoint: -10.0°C (14°F) [RH =  6%]
Pressure (altimeter): 29.97 inches Hg (1015.0 mb)
Winds: from the ENE (70 degrees) at 7 MPH (6 knots; 3.1 m/s)
Visibility: 6 or more miles (10+ km)
Ceiling: ceiling and visibility are OK
Clouds: unknown
Weather: no significant weather observed at this time

METAR text: DXNG 231100Z 09010KT 050V120 CAVOK 30/M11 Q1016
Conditions at: DXNG (NAIMTOUGOU(CIV/M, TG) observed 1100 UTC 23 January 2019
Temperature: 30.0°C (86°F)
Dewpoint: -11.0°C (12°F) [RH =  6%]
Pressure (altimeter): 30.00 inches Hg (1016.0 mb)
Winds: from the E (90 degrees) at 12 MPH (10 knots; 5.1 m/s)
Visibility: 6 or more miles (10+ km)
Ceiling: ceiling and visibility are OK
Clouds: unknown
Weather: no significant weather observed at this time

METAR text: DXNG 231000Z 07007KT 020V120 CAVOK 29/M08 Q1017
Conditions at: DXNG (NAIMTOUGOU(CIV/M, TG) observed 1000 UTC 23 January 2019
Temperature: 29.0°C (84°F)
Dewpoint: -8.0°C (18°F) [RH =  8%]
Pressure (altimeter): 30.03 inches Hg (1017.0 mb)
Winds: from the ENE (70 degrees) at 8 MPH (7 knots; 3.6 m/s)
Visibility: 6 or more miles (10+ km)
Ceiling: ceiling and visibility are OK
Clouds: unknown
Weather: no significant weather observed at this time

METAR text: DXNG 230900Z 11004KT 060V130 CAVOK 27/M07 Q1017
Conditions at: DXNG (NAIMTOUGOU(CIV/M, TG) observed 0900 UTC 23 January 2019
Temperature: 27.0°C (81°F)
Dewpoint: -7.0°C (19°F) [RH = 10%]
Pressure (altimeter): 30.03 inches Hg (1017.0 mb)
Winds: from the ESE (110 degrees) at 5 MPH (4 knots; 2.1 m/s)
Visibility: 6 or more miles (10+ km)
Ceiling: ceiling and visibility are OK
Clouds: unknown
Weather: no significant weather observed at this time

METAR text: DXNG 230800Z 08005KT CAVOK 25/M07 Q1016
Conditions at: DXNG (NAIMTOUGOU(CIV/M, TG) observed 0800 UTC 23 January 2019
Temperature: 25.0°C (77°F)
Dewpoint: -7.0°C (19°F) [RH = 11%]
Pressure (altimeter): 30.00 inches Hg (1016.0 mb)
Winds: from the E (80 degrees) at 6 MPH (5 knots; 2.6 m/s)
Visibility: 6 or more miles (10+ km)
Ceiling: ceiling and visibility are OK
Clouds: unknown
Weather: no significant weather observed at this time

METAR text: DXNG 230700Z 10005KT CAVOK 23/M09 Q1015
Conditions at: DXNG (NAIMTOUGOU(CIV/M, TG) observed 0700 UTC 23 January 2019
Temperature: 23.0°C (73°F)
Dewpoint: -9.0°C (16°F) [RH = 11%]
Pressure (altimeter): 29.97 inches Hg (1015.0 mb)
Winds: from the E (100 degrees) at 6 MPH (5 knots; 2.6 m/s)
Visibility: 6 or more miles (10+ km)
Ceiling: ceiling and visibility are OK
Clouds: unknown
Weather: no significant weather observed at this time

METAR text: DXNG 230600Z 36009KT CAVOK 23/M10 Q1015
Conditions at: DXNG (NAIMTOUGOU(CIV/M, TG) observed 0600 UTC 23 January 2019
Temperature: 23.0°C (73°F)
Dewpoint: -10.0°C (14°F) [RH = 10%]
Pressure (altimeter): 29.97 inches Hg (1015.0 mb)
Winds: from the N (360 degrees) at 10 MPH (9 knots; 4.6 m/s)
Visibility: 6 or more miles (10+ km)
Ceiling: ceiling and visibility are OK
Clouds: unknown
Weather: no significant weather observed at this time

METAR text: DXNG 230300Z 02002KT CAVOK 24/02 Q1014
Conditions at: DXNG (NAIMTOUGOU(CIV/M, TG) observed 0300 UTC 23 January 2019
Temperature: 24.0°C (75°F)
Dewpoint: 2.0°C (36°F) [RH = 24%]
Pressure (altimeter): 29.94 inches Hg (1014.0 mb)
Winds: from the NNE (20 degrees) at 2 MPH (2 knots; 1.0 m/s)
Visibility: 6 or more miles (10+ km)
Ceiling: ceiling and visibility are OK
Clouds: unknown
Weather: no significant weather observed at this time

METAR text: DXNG 230000Z 02006KT CAVOK 26/03 Q1015
Conditions at: DXNG (NAIMTOUGOU(CIV/M, TG) observed 0000 UTC 23 January 2019
Temperature: 26.0°C (79°F)
Dewpoint: 3.0°C (37°F) [RH = 23%]
Pressure (altimeter): 29.97 inches Hg (1015.0 mb)
Winds: from the NNE (20 degrees) at 7 MPH (6 knots; 3.1 m/s)
Visibility: 6 or more miles (10+ km)
Ceiling: ceiling and visibility are OK
Clouds: unknown
Weather: no significant weather observed at this time

METAR text: DXNG 222100Z 04006KT CAVOK 27/05 Q1015
Conditions at: DXNG (NAIMTOUGOU(CIV/M, TG) observed 2100 UTC 22 January 2019
Temperature: 27.0°C (81°F)
Dewpoint: 5.0°C (41°F) [RH = 24%]
Pressure (altimeter): 29.97 inches Hg (1015.0 mb)
Winds: from the NE (40 degrees) at 7 MPH (6 knots; 3.1 m/s)
Visibility: 6 or more miles (10+ km)
Ceiling: ceiling and visibility are OK
Clouds: unknown
Weather: no significant weather observed at this time

METAR text: DXNG 221800Z 33006KT CAVOK 32/M05 Q1013
Conditions at: DXNG (NAIMTOUGOU(CIV/M, TG) observed 1800 UTC 22 January 2019
Temperature: 32.0°C (90°F)
Dewpoint: -5.0°C (23°F) [RH =  9%]
Pressure (altimeter): 29.91 inches Hg (1013.0 mb)
Winds: from the NNW (330 degrees) at 7 MPH (6 knots; 3.1 m/s)
Visibility: 6 or more miles (10+ km)
Ceiling: ceiling and visibility are OK
Clouds: unknown
Weather: no significant weather observed at this time

METAR text: DXNG 221700Z 34006KT 300V010 CAVOK 34/M05 Q1013
Conditions at: DXNG (NAIMTOUGOU(CIV/M, TG) observed 1700 UTC 22 January 2019
Temperature: 34.0°C (93°F)
Dewpoint: -5.0°C (23°F) [RH =  8%]
Pressure (altimeter): 29.91 inches Hg (1013.0 mb)
Winds: from the NNW (340 degrees) at 7 MPH (6 knots; 3.1 m/s)
Visibility: 6 or more miles (10+ km)
Ceiling: ceiling and visibility are OK
Clouds: unknown
Weather: no significant weather observed at this time

METAR text: DXNG 221600Z 33006KT 280V360 CAVOK 35/M04 Q1013
Conditions at: DXNG (NAIMTOUGOU(CIV/M, TG) observed 1600 UTC 22 January 2019
Temperature: 35.0°C (95°F)
Dewpoint: -4.0°C (25°F) [RH =  8%]
Pressure (altimeter): 29.91 inches Hg (1013.0 mb)
Winds: from the NNW (330 degrees) at 7 MPH (6 knots; 3.1 m/s)
Visibility: 6 or more miles (10+ km)
Ceiling: ceiling and visibility are OK
Clouds: unknown
Weather: no significant weather observed at this time

METAR text: DXNG 221500Z VRB05KT CAVOK 35/M04 Q1013
Conditions at: DXNG (NAIMTOUGOU(CIV/M, TG) observed 1500 UTC 22 January 2019
Temperature: 35.0°C (95°F)
Dewpoint: -4.0°C (25°F) [RH =  8%]
Pressure (altimeter): 29.91 inches Hg (1013.0 mb)
Winds: variable direction winds at 6 MPH (5 knots; 2.6 m/s)
Visibility: 6 or more miles (10+ km)
Ceiling: ceiling and visibility are OK
Clouds: unknown
Weather: no significant weather observed at this time

METAR text: DXNG 221400Z VRB05KT CAVOK 35/M04 Q1013
Conditions at: DXNG (NAIMTOUGOU(CIV/M, TG) observed 1400 UTC 22 January 2019
Temperature: 35.0°C (95°F)
Dewpoint: -4.0°C (25°F) [RH =  8%]
Pressure (altimeter): 29.91 inches Hg (1013.0 mb)
Winds: variable direction winds at 6 MPH (5 knots; 2.6 m/s)
Visibility: 6 or more miles (10+ km)
Ceiling: ceiling and visibility are OK
Clouds: unknown
Weather: no significant weather observed at this time

METAR text: DXNG 221300Z 32006KT 260V060 CAVOK 34/M06 Q1014
Conditions at: DXNG (NAIMTOUGOU(CIV/M, TG) observed 1300 UTC 22 January 2019
Temperature: 34.0°C (93°F)
Dewpoint: -6.0°C (21°F) [RH =  7%]
Pressure (altimeter): 29.94 inches Hg (1014.0 mb)
Winds: from the NW (320 degrees) at 7 MPH (6 knots; 3.1 m/s)
Visibility: 6 or more miles (10+ km)
Ceiling: ceiling and visibility are OK
Clouds: unknown
Weather: no significant weather observed at this time

METAR text: DXNG 221200Z VRB05KT CAVOK 33/M06 Q1015
Conditions at: DXNG (NAIMTOUGOU(CIV/M, TG) observed 1200 UTC 22 January 2019
Temperature: 33.0°C (91°F)
Dewpoint: -6.0°C (21°F) [RH =  8%]
Pressure (altimeter): 29.97 inches Hg (1015.0 mb)
Winds: variable direction winds at 6 MPH (5 knots; 2.6 m/s)
Visibility: 6 or more miles (10+ km)
Ceiling: ceiling and visibility are OK
Clouds: unknown
Weather: no significant weather observed at this time

METAR text: DXNG 221100Z 08003KT 360V130 CAVOK 32/M07 Q1016
Conditions at: DXNG (NAIMTOUGOU(CIV/M, TG) observed 1100 UTC 22 January 2019
Temperature: 32.0°C (90°F)
Dewpoint: -7.0°C (19°F) [RH =  8%]
Pressure (altimeter): 30.00 inches Hg (1016.0 mb)
Winds: from the E (80 degrees) at 3 MPH (3 knots; 1.5 m/s)
Visibility: 6 or more miles (10+ km)
Ceiling: ceiling and visibility are OK
Clouds: unknown
Weather: no significant weather observed at this time

METAR text: DXNG 221000Z 04004KT 360V110 CAVOK 31/M07 Q1017
Conditions at: DXNG (NAIMTOUGOU(CIV/M, TG) observed 1000 UTC 22 January 2019
Temperature: 31.0°C (88°F)
Dewpoint: -7.0°C (19°F) [RH =  8%]
Pressure (altimeter): 30.03 inches Hg (1017.0 mb)
Winds: from the NE (40 degrees) at 5 MPH (4 knots; 2.1 m/s)
Visibility: 6 or more miles (10+ km)
Ceiling: ceiling and visibility are OK
Clouds: unknown
Weather: no significant weather observed at this time

METAR text: DXNG 220900Z 07004KT 030V100 CAVOK 29/M06 Q1017
Conditions at: DXNG (NAIMTOUGOU(CIV/M, TG) observed 0900 UTC 22 January 2019
Temperature: 29.0°C (84°F)
Dewpoint: -6.0°C (21°F) [RH = 10%]
Pressure (altimeter): 30.03 inches Hg (1017.0 mb)
Winds: from the ENE (70 degrees) at 5 MPH (4 knots; 2.1 m/s)
Visibility: 6 or more miles (10+ km)
Ceiling: ceiling and visibility are OK
Clouds: unknown
Weather: no significant weather observed at this time

METAR text: DXNG 220800Z 06003KT 020V090 CAVOK 25/M04 Q1016
Conditions at: DXNG (NAIMTOUGOU(CIV/M, TG) observed 0800 UTC 22 January 2019
Temperature: 25.0°C (77°F)
Dewpoint: -4.0°C (25°F) [RH = 14%]
Pressure (altimeter): 30.00 inches Hg (1016.0 mb)
Winds: from the ENE (60 degrees) at 3 MPH (3 knots; 1.5 m/s)
Visibility: 6 or more miles (10+ km)
Ceiling: ceiling and visibility are OK
Clouds: unknown
Weather: no significant weather observed at this time

Forecast for: DXNG (NAIMTOUGOU(CIV/M, TG)
Text: TAF DXNG 231700Z 2318/2418 04006KT CAVOK
Forecast period: 1800 UTC 23 January 2019 to 1800 UTC 24 January 2019
Forecast type: FROM: standard forecast or significant change
Winds: from the NE (40 degrees) at 7 MPH (6 knots; 3.1 m/s)
Visibility: 6 or more miles 10+ km)
Ceiling: unknown
Clouds: missing
Weather: NSW  (no significant weather)